sensor_id;sensor_type;location;lat;lon;timestamp;pressure;altitude;pressure_sealevel;temperature;humidity
74524;BME280;63074;44.696;10.358;2023-12-20T00:00:24;100102.53;;;11.04;92.33
74524;BME280;63074;44.696;10.358;2023-12-20T00:02:50;100097.78;;;10.71;90.88
74524;BME280;63074;44.696;10.358;2023-12-20T00:05:17;100091.91;;;10.04;95.48
74524;BME280;63074;44.696;10.358;2023-12-20T00:07:43;100087.34;;;10.04;96.89
74524;BME280;63074;44.696;10.358;2023-12-20T00:10:09;100085.03;;;10.08;96.23
74524;BME280;63074;44.696;10.358;2023-12-20T00:12:36;100082.84;;;9.75;99.17
74524;BME280;63074;44.696;10.358;2023-12-20T00:15:02;100086.38;;;9.87;100.00
74524;BME280;63074;44.696;10.358;2023-12-20T00:17:29;100081.78;;;9.16;100.00
74524;BME280;63074;44.696;10.358;2023-12-20T00:19:55;100073.47;;;8.88;100.00
74524;BME280;63074;44.696;10.358;2023-12-20T00:22:21;100064.78;;;8.92;100.00
74524;BME280;63074;44.696;10.358;2023-12-20T00:24:47;100055.13;;;9.51;100.00
74524;BME280;63074;44.696;10.358;2023-12-20T00:27:13;100040.91;;;9.02;100.00
74524;BME280;63074;44.696;10.358;2023-12-20T00:29:39;100044.03;;;9.18;100.00
74524;BME280;63074;44.696;10.358;2023-12-20T00:32:06;100041.22;;;9.12;100.00
74524;BME280;63074;44.696;10.358;2023-12-20T00:34:32;100035.44;;;9.27;100.00
74524;BME280;63074;44.696;10.358;2023-12-20T00:36:58;100027.16;;;8.99;100.00
74524;BME280;63074;44.696;10.358;2023-12-20T00:39:24;100026.94;;;8.82;100.00
74524;BME280;63074;44.696;10.358;2023-12-20T00:41:50;100025.56;;;9.09;100.00
74524;BME280;63074;44.696;10.358;2023-12-20T00:44:17;100020.50;;;9.20;100.00
74524;BME280;63074;44.696;10.358;2023-12-20T00:46:43;100020.59;;;9.43;99.61
74524;BME280;63074;44.696;10.358;2023-12-20T00:49:09;100010.59;;;9.62;97.90
74524;BME280;63074;44.696;10.358;2023-12-20T00:51:35;100005.16;;;9.38;98.41
74524;BME280;63074;44.696;10.358;2023-12-20T00:54:01;99997.28;;;8.95;100.00
74524;BME280;63074;44.696;10.358;2023-12-20T00:56:28;99995.50;;;9.07;100.00
74524;BME280;63074;44.696;10.358;2023-12-20T00:58:54;99998.41;;;9.06;100.00
74524;BME280;63074;44.696;10.358;2023-12-20T01:01:21;99987.66;;;8.94;100.00
74524;BME280;63074;44.696;10.358;2023-12-20T01:03:47;99981.13;;;9.02;100.00
74524;BME280;63074;44.696;10.358;2023-12-20T01:06:14;99977.53;;;9.08;100.00
74524;BME280;63074;44.696;10.358;2023-12-20T01:08:41;99970.03;;;9.28;100.00
74524;BME280;63074;44.696;10.358;2023-12-20T01:11:07;99975.16;;;9.95;97.04
74524;BME280;63074;44.696;10.358;2023-12-20T01:13:34;99966.31;;;10.29;93.15
74524;BME280;63074;44.696;10.358;2023-12-20T01:16:01;99968.16;;;10.17;92.18
74524;BME280;63074;44.696;10.358;2023-12-20T01:18:27;99974.50;;;10.34;91.62
74524;BME280;63074;44.696;10.358;2023-12-20T01:20:54;99974.22;;;10.47;91.80
74524;BME280;63074;44.696;10.358;2023-12-20T01:23:20;99983.94;;;10.37;91.94
74524;BME280;63074;44.696;10.358;2023-12-20T01:25:46;99976.13;;;10.35;90.99
74524;BME280;63074;44.696;10.358;2023-12-20T01:28:12;99969.19;;;10.63;90.07
74524;BME280;63074;44.696;10.358;2023-12-20T01:30:38;99967.13;;;10.06;91.40
74524;BME280;63074;44.696;10.358;2023-12-20T01:33:05;99971.88;;;10.63;90.79
74524;BME280;63074;44.696;10.358;2023-12-20T01:35:31;99962.66;;;10.12;91.55
74524;BME280;63074;44.696;10.358;2023-12-20T01:37:57;99964.34;;;10.36;91.49
74524;BME280;63074;44.696;10.358;2023-12-20T01:40:23;99958.13;;;9.89;93.93
74524;BME280;63074;44.696;10.358;2023-12-20T01:43:09;99960.81;;;9.77;96.75
74524;BME280;63074;44.696;10.358;2023-12-20T01:45:35;99959.31;;;9.81;96.11
74524;BME280;63074;44.696;10.358;2023-12-20T01:48:02;99939.75;;;10.56;93.83
74524;BME280;63074;44.696;10.358;2023-12-20T01:50:31;99937.22;;;10.38;93.31
74524;BME280;63074;44.696;10.358;2023-12-20T01:53:00;99939.78;;;9.86;94.89
74524;BME280;63074;44.696;10.358;2023-12-20T01:55:29;99941.78;;;10.14;94.89
74524;BME280;63074;44.696;10.358;2023-12-20T01:57:57;99938.41;;;10.07;94.97
74524;BME280;63074;44.696;10.358;2023-12-20T02:00:25;99937.50;;;9.25;98.38
74524;BME280;63074;44.696;10.358;2023-12-20T02:02:54;99925.34;;;9.52;98.01
74524;BME280;63074;44.696;10.358;2023-12-20T02:05:23;99923.47;;;9.76;96.34
74524;BME280;63074;44.696;10.358;2023-12-20T02:07:49;99919.97;;;10.10;94.62
74524;BME280;63074;44.696;10.358;2023-12-20T02:10:16;99921.72;;;9.81;94.40
74524;BME280;63074;44.696;10.358;2023-12-20T02:12:43;99919.06;;;9.81;95.00
74524;BME280;63074;44.696;10.358;2023-12-20T02:15:09;99930.78;;;9.57;96.04
74524;BME280;63074;44.696;10.358;2023-12-20T02:17:36;99923.09;;;9.49;97.26
74524;BME280;63074;44.696;10.358;2023-12-20T02:20:04;99918.16;;;9.23;96.84
74524;BME280;63074;44.696;10.358;2023-12-20T02:22:31;99922.72;;;9.34;96.14
74524;BME280;63074;44.696;10.358;2023-12-20T02:24:58;99918.97;;;10.40;93.43
74524;BME280;63074;44.696;10.358;2023-12-20T02:27:24;99913.13;;;10.43;90.63
74524;BME280;63074;44.696;10.358;2023-12-20T02:29:51;99906.72;;;10.84;89.17
74524;BME280;63074;44.696;10.358;2023-12-20T02:32:18;99914.91;;;11.06;88.22
74524;BME280;63074;44.696;10.358;2023-12-20T02:34:45;99910.06;;;9.53;91.84
74524;BME280;63074;44.696;10.358;2023-12-20T02:37:12;99915.97;;;9.01;97.24
74524;BME280;63074;44.696;10.358;2023-12-20T02:39:38;99917.81;;;8.89;98.90
74524;BME280;63074;44.696;10.358;2023-12-20T02:42:04;99921.78;;;8.68;100.00
74524;BME280;63074;44.696;10.358;2023-12-20T02:44:30;99923.19;;;8.89;100.00
74524;BME280;63074;44.696;10.358;2023-12-20T02:46:56;99924.75;;;9.62;96.94
74524;BME280;63074;44.696;10.358;2023-12-20T02:49:23;99927.88;;;9.82;94.64
74524;BME280;63074;44.696;10.358;2023-12-20T02:51:49;99936.63;;;9.42;98.18
74524;BME280;63074;44.696;10.358;2023-12-20T02:54:15;99928.69;;;10.18;94.85
74524;BME280;63074;44.696;10.358;2023-12-20T02:56:41;99933.44;;;10.62;91.45
74524;BME280;63074;44.696;10.358;2023-12-20T02:59:07;99934.31;;;10.04;94.17
74524;BME280;63074;44.696;10.358;2023-12-20T03:01:35;99935.47;;;9.62;97.88
74524;BME280;63074;44.696;10.358;2023-12-20T03:04:01;99933.66;;;9.32;99.80
74524;BME280;63074;44.696;10.358;2023-12-20T03:06:28;99930.72;;;10.22;94.87
74524;BME280;63074;44.696;10.358;2023-12-20T03:08:54;99928.84;;;9.11;100.00
74524;BME280;63074;44.696;10.358;2023-12-20T03:11:20;99925.72;;;8.84;100.00
74524;BME280;63074;44.696;10.358;2023-12-20T03:13:46;99921.97;;;9.15;100.00
74524;BME280;63074;44.696;10.358;2023-12-20T03:16:13;99919.13;;;9.40;100.00
74524;BME280;63074;44.696;10.358;2023-12-20T03:18:40;99914.25;;;9.07;100.00
74524;BME280;63074;44.696;10.358;2023-12-20T03:21:06;99906.28;;;8.59;100.00
74524;BME280;63074;44.696;10.358;2023-12-20T03:23:33;99897.22;;;8.71;100.00
74524;BME280;63074;44.696;10.358;2023-12-20T03:25:59;99881.19;;;9.25;100.00
74524;BME280;63074;44.696;10.358;2023-12-20T03:28:27;99894.97;;;9.40;100.00
74524;BME280;63074;44.696;10.358;2023-12-20T03:30:53;99884.88;;;8.70;100.00
74524;BME280;63074;44.696;10.358;2023-12-20T03:33:19;99873.44;;;8.93;100.00
74524;BME280;63074;44.696;10.358;2023-12-20T03:35:46;99867.75;;;9.01;100.00
74524;BME280;63074;44.696;10.358;2023-12-20T03:38:12;99857.34;;;9.46;98.35
74524;BME280;63074;44.696;10.358;2023-12-20T03:40:38;99858.47;;;9.62;97.25
74524;BME280;63074;44.696;10.358;2023-12-20T03:43:05;99844.69;;;9.12;98.45
74524;BME280;63074;44.696;10.358;2023-12-20T03:45:31;99842.53;;;8.79;100.00
74524;BME280;63074;44.696;10.358;2023-12-20T03:47:57;99839.69;;;8.74;99.83
74524;BME280;63074;44.696;10.358;2023-12-20T03:50:24;99838.00;;;8.50;100.00
74524;BME280;63074;44.696;10.358;2023-12-20T03:52:50;99834.06;;;9.05;98.14
74524;BME280;63074;44.696;10.358;2023-12-20T03:55:16;99822.91;;;9.20;98.46
74524;BME280;63074;44.696;10.358;2023-12-20T03:57:42;99810.44;;;9.14;98.78
74524;BME280;63074;44.696;10.358;2023-12-20T04:00:09;99793.88;;;9.05;100.00
74524;BME280;63074;44.696;10.358;2023-12-20T04:02:39;99787.34;;;9.25;99.28
74524;BME280;63074;44.696;10.358;2023-12-20T04:05:06;99797.94;;;8.85;100.00
74524;BME280;63074;44.696;10.358;2023-12-20T04:07:33;99787.09;;;8.91;100.00
74524;BME280;63074;44.696;10.358;2023-12-20T04:09:59;99783.47;;;8.97;100.00
74524;BME280;63074;44.696;10.358;2023-12-20T04:12:26;99783.41;;;9.16;100.00
74524;BME280;63074;44.696;10.358;2023-12-20T04:14:53;99789.44;;;9.69;98.71
74524;BME280;63074;44.696;10.358;2023-12-20T04:17:19;99792.75;;;8.60;99.78
74524;BME280;63074;44.696;10.358;2023-12-20T04:19:46;99786.91;;;8.03;100.00
74524;BME280;63074;44.696;10.358;2023-12-20T04:22:12;99788.38;;;7.62;100.00
74524;BME280;63074;44.696;10.358;2023-12-20T04:24:38;99800.63;;;7.52;100.00
74524;BME280;63074;44.696;10.358;2023-12-20T04:27:04;99795.66;;;7.37;100.00
74524;BME280;63074;44.696;10.358;2023-12-20T04:29:31;99797.16;;;7.69;100.00
74524;BME280;63074;44.696;10.358;2023-12-20T04:31:57;99801.31;;;7.65;100.00
74524;BME280;63074;44.696;10.358;2023-12-20T04:34:24;99793.28;;;7.65;100.00
74524;BME280;63074;44.696;10.358;2023-12-20T04:36:50;99793.81;;;7.56;100.00
74524;BME280;63074;44.696;10.358;2023-12-20T04:39:16;99780.91;;;8.79;100.00
74524;BME280;63074;44.696;10.358;2023-12-20T04:41:42;99776.00;;;8.16;100.00
74524;BME280;63074;44.696;10.358;2023-12-20T04:44:09;99770.47;;;9.12;100.00
74524;BME280;63074;44.696;10.358;2023-12-20T04:46:35;99779.00;;;8.56;100.00
74524;BME280;63074;44.696;10.358;2023-12-20T04:49:01;99790.81;;;7.02;100.00
74524;BME280;63074;44.696;10.358;2023-12-20T04:51:28;99786.16;;;7.59;100.00
74524;BME280;63074;44.696;10.358;2023-12-20T04:53:54;99780.94;;;7.83;100.00
74524;BME280;63074;44.696;10.358;2023-12-20T04:56:20;99788.25;;;8.84;100.00
74524;BME280;63074;44.696;10.358;2023-12-20T04:58:46;99788.59;;;7.97;100.00
74524;BME280;63074;44.696;10.358;2023-12-20T05:01:13;99786.75;;;7.61;100.00
74524;BME280;63074;44.696;10.358;2023-12-20T05:03:39;99789.91;;;6.90;100.00
74524;BME280;63074;44.696;10.358;2023-12-20T05:06:05;99789.75;;;8.20;100.00
74524;BME280;63074;44.696;10.358;2023-12-20T05:08:32;99789.25;;;8.11;100.00
74524;BME280;63074;44.696;10.358;2023-12-20T05:10:58;99791.53;;;7.77;100.00
74524;BME280;63074;44.696;10.358;2023-12-20T05:13:24;99796.50;;;8.40;100.00
74524;BME280;63074;44.696;10.358;2023-12-20T05:15:50;99795.81;;;7.97;100.00
74524;BME280;63074;44.696;10.358;2023-12-20T05:18:16;99807.50;;;8.51;100.00
74524;BME280;63074;44.696;10.358;2023-12-20T05:20:43;99809.25;;;8.57;100.00
74524;BME280;63074;44.696;10.358;2023-12-20T05:23:09;99809.84;;;8.59;100.00
74524;BME280;63074;44.696;10.358;2023-12-20T05:25:35;99802.56;;;8.36;100.00
74524;BME280;63074;44.696;10.358;2023-12-20T05:28:02;99802.31;;;8.19;100.00
74524;BME280;63074;44.696;10.358;2023-12-20T05:30:28;99790.53;;;7.35;100.00
74524;BME280;63074;44.696;10.358;2023-12-20T05:32:55;99799.22;;;7.86;100.00
74524;BME280;63074;44.696;10.358;2023-12-20T05:35:21;99795.81;;;7.42;100.00
74524;BME280;63074;44.696;10.358;2023-12-20T05:37:49;99778.22;;;7.71;100.00
74524;BME280;63074;44.696;10.358;2023-12-20T05:40:16;99780.59;;;7.79;100.00
74524;BME280;63074;44.696;10.358;2023-12-20T05:42:42;99782.66;;;7.59;100.00
74524;BME280;63074;44.696;10.358;2023-12-20T05:45:09;99786.31;;;6.47;100.00
74524;BME280;63074;44.696;10.358;2023-12-20T05:47:36;99782.13;;;6.89;100.00
74524;BME280;63074;44.696;10.358;2023-12-20T05:50:03;99788.28;;;7.32;100.00
74524;BME280;63074;44.696;10.358;2023-12-20T05:52:30;99785.72;;;7.99;100.00
74524;BME280;63074;44.696;10.358;2023-12-20T05:54:56;99786.94;;;8.74;100.00
74524;BME280;63074;44.696;10.358;2023-12-20T05:57:24;99781.28;;;9.41;100.00
74524;BME280;63074;44.696;10.358;2023-12-20T05:59:50;99771.47;;;8.17;100.00
74524;BME280;63074;44.696;10.358;2023-12-20T06:02:16;99770.69;;;7.98;100.00
74524;BME280;63074;44.696;10.358;2023-12-20T06:04:43;99769.59;;;8.77;100.00
74524;BME280;63074;44.696;10.358;2023-12-20T06:07:12;99768.81;;;9.00;100.00
74524;BME280;63074;44.696;10.358;2023-12-20T06:09:39;99768.81;;;9.00;100.00
74524;BME280;63074;44.696;10.358;2023-12-20T06:12:05;99776.81;;;8.76;100.00
74524;BME280;63074;44.696;10.358;2023-12-20T06:14:31;99765.56;;;9.21;100.00
74524;BME280;63074;44.696;10.358;2023-12-20T06:16:58;99764.75;;;9.44;100.00
74524;BME280;63074;44.696;10.358;2023-12-20T06:19:24;99764.69;;;9.67;100.00
74524;BME280;63074;44.696;10.358;2023-12-20T06:21:50;99765.06;;;9.59;100.00
74524;BME280;63074;44.696;10.358;2023-12-20T06:24:16;99759.72;;;9.24;100.00
74524;BME280;63074;44.696;10.358;2023-12-20T06:26:42;99750.66;;;8.49;100.00
74524;BME280;63074;44.696;10.358;2023-12-20T06:29:09;99754.38;;;8.36;100.00
74524;BME280;63074;44.696;10.358;2023-12-20T06:31:35;99750.63;;;8.78;100.00
74524;BME280;63074;44.696;10.358;2023-12-20T06:34:02;99739.19;;;9.30;100.00
74524;BME280;63074;44.696;10.358;2023-12-20T06:36:29;99752.56;;;9.76;100.00
74524;BME280;63074;44.696;10.358;2023-12-20T06:38:55;99746.38;;;9.76;100.00
74524;BME280;63074;44.696;10.358;2023-12-20T06:41:21;99739.91;;;9.89;100.00
74524;BME280;63074;44.696;10.358;2023-12-20T06:43:50;99736.31;;;10.11;100.00
74524;BME280;63074;44.696;10.358;2023-12-20T06:46:17;99735.78;;;9.58;100.00
74524;BME280;63074;44.696;10.358;2023-12-20T06:48:43;99739.63;;;9.62;100.00
74524;BME280;63074;44.696;10.358;2023-12-20T06:51:14;99750.00;;;9.70;100.00
74524;BME280;63074;44.696;10.358;2023-12-20T06:53:40;99739.84;;;9.72;100.00
74524;BME280;63074;44.696;10.358;2023-12-20T06:56:06;99737.78;;;10.02;100.00
74524;BME280;63074;44.696;10.358;2023-12-20T06:58:33;99748.53;;;10.31;100.00
74524;BME280;63074;44.696;10.358;2023-12-20T07:00:59;99756.66;;;9.56;100.00
74524;BME280;63074;44.696;10.358;2023-12-20T07:03:26;99755.44;;;10.15;100.00
74524;BME280;63074;44.696;10.358;2023-12-20T07:05:52;99742.44;;;10.07;100.00
74524;BME280;63074;44.696;10.358;2023-12-20T07:08:18;99735.78;;;10.09;100.00
74524;BME280;63074;44.696;10.358;2023-12-20T07:10:45;99755.66;;;9.97;100.00
74524;BME280;63074;44.696;10.358;2023-12-20T07:13:11;99758.47;;;10.30;100.00
74524;BME280;63074;44.696;10.358;2023-12-20T07:15:38;99769.44;;;10.17;100.00
74524;BME280;63074;44.696;10.358;2023-12-20T07:18:04;99779.22;;;8.55;100.00
74524;BME280;63074;44.696;10.358;2023-12-20T07:20:32;99781.44;;;8.58;100.00
74524;BME280;63074;44.696;10.358;2023-12-20T07:22:58;99783.13;;;8.40;100.00
74524;BME280;63074;44.696;10.358;2023-12-20T07:25:24;99790.72;;;8.25;100.00
74524;BME280;63074;44.696;10.358;2023-12-20T07:27:51;99788.44;;;8.59;100.00
74524;BME280;63074;44.696;10.358;2023-12-20T07:30:17;99793.94;;;8.75;100.00
74524;BME280;63074;44.696;10.358;2023-12-20T07:32:43;99795.50;;;8.95;100.00
74524;BME280;63074;44.696;10.358;2023-12-20T07:35:09;99797.63;;;9.16;100.00
74524;BME280;63074;44.696;10.358;2023-12-20T07:37:35;99796.56;;;9.17;100.00
74524;BME280;63074;44.696;10.358;2023-12-20T07:40:01;99801.44;;;8.97;100.00
74524;BME280;63074;44.696;10.358;2023-12-20T07:42:29;99798.53;;;9.10;100.00
74524;BME280;63074;44.696;10.358;2023-12-20T07:44:55;99806.94;;;9.13;100.00
74524;BME280;63074;44.696;10.358;2023-12-20T07:47:22;99800.41;;;9.09;100.00
74524;BME280;63074;44.696;10.358;2023-12-20T07:49:49;99800.28;;;9.28;100.00
74524;BME280;63074;44.696;10.358;2023-12-20T07:52:17;99805.25;;;8.48;100.00
74524;BME280;63074;44.696;10.358;2023-12-20T07:54:44;99803.69;;;8.58;100.00
74524;BME280;63074;44.696;10.358;2023-12-20T07:57:11;99813.22;;;8.54;100.00
74524;BME280;63074;44.696;10.358;2023-12-20T07:59:37;99810.16;;;8.51;100.00
74524;BME280;63074;44.696;10.358;2023-12-20T08:02:04;99819.59;;;8.83;100.00
74524;BME280;63074;44.696;10.358;2023-12-20T08:04:30;99806.00;;;9.66;100.00
74524;BME280;63074;44.696;10.358;2023-12-20T08:06:56;99809.63;;;9.13;100.00
74524;BME280;63074;44.696;10.358;2023-12-20T08:09:22;99809.38;;;9.27;100.00
74524;BME280;63074;44.696;10.358;2023-12-20T08:11:49;99814.50;;;9.28;100.00
74524;BME280;63074;44.696;10.358;2023-12-20T08:14:16;99820.72;;;10.56;100.00
74524;BME280;63074;44.696;10.358;2023-12-20T08:16:42;99816.28;;;10.49;100.00
74524;BME280;63074;44.696;10.358;2023-12-20T08:19:08;99804.38;;;10.29;100.00
74524;BME280;63074;44.696;10.358;2023-12-20T08:21:34;99820.81;;;9.22;100.00
74524;BME280;63074;44.696;10.358;2023-12-20T08:24:01;99827.41;;;10.41;100.00
74524;BME280;63074;44.696;10.358;2023-12-20T08:26:27;99824.69;;;10.98;100.00
74524;BME280;63074;44.696;10.358;2023-12-20T08:28:53;99820.03;;;10.77;100.00
74524;BME280;63074;44.696;10.358;2023-12-20T08:31:20;99819.88;;;11.00;100.00
74524;BME280;63074;44.696;10.358;2023-12-20T08:33:47;99816.47;;;11.22;100.00
74524;BME280;63074;44.696;10.358;2023-12-20T08:36:14;99835.44;;;10.98;100.00
74524;BME280;63074;44.696;10.358;2023-12-20T08:38:41;99831.09;;;10.64;100.00
74524;BME280;63074;44.696;10.358;2023-12-20T08:41:07;99827.44;;;10.87;100.00
74524;BME280;63074;44.696;10.358;2023-12-20T08:43:36;99817.03;;;10.90;100.00
74524;BME280;63074;44.696;10.358;2023-12-20T08:46:05;99821.41;;;9.71;100.00
74524;BME280;63074;44.696;10.358;2023-12-20T08:48:31;99816.03;;;9.59;100.00
74524;BME280;63074;44.696;10.358;2023-12-20T08:50:57;99828.59;;;9.94;100.00
74524;BME280;63074;44.696;10.358;2023-12-20T08:53:24;99832.41;;;10.09;100.00
74524;BME280;63074;44.696;10.358;2023-12-20T08:55:51;99832.91;;;10.92;100.00
74524;BME280;63074;44.696;10.358;2023-12-20T08:58:17;99840.31;;;10.28;100.00
74524;BME280;63074;44.696;10.358;2023-12-20T09:00:43;99823.34;;;12.06;100.00
74524;BME280;63074;44.696;10.358;2023-12-20T09:03:10;99819.78;;;12.49;98.04
74524;BME280;63074;44.696;10.358;2023-12-20T09:05:36;99820.16;;;12.58;95.83
74524;BME280;63074;44.696;10.358;2023-12-20T09:08:02;99820.25;;;11.59;100.00
74524;BME280;63074;44.696;10.358;2023-12-20T09:10:29;99822.22;;;11.80;100.00
74524;BME280;63074;44.696;10.358;2023-12-20T09:12:55;99823.09;;;11.69;100.00
74524;BME280;63074;44.696;10.358;2023-12-20T09:15:26;99826.22;;;11.78;100.00
74524;BME280;63074;44.696;10.358;2023-12-20T09:17:53;99819.91;;;12.33;99.02
74524;BME280;63074;44.696;10.358;2023-12-20T09:20:20;99819.84;;;12.55;97.80
74524;BME280;63074;44.696;10.358;2023-12-20T09:22:46;99813.13;;;12.30;99.08
74524;BME280;63074;44.696;10.358;2023-12-20T09:25:12;99798.41;;;12.65;94.94
74524;BME280;63074;44.696;10.358;2023-12-20T09:27:39;99797.28;;;12.61;96.80
74524;BME280;63074;44.696;10.358;2023-12-20T09:30:06;99792.72;;;12.93;100.00
74524;BME280;63074;44.696;10.358;2023-12-20T09:32:32;99795.22;;;12.73;100.00
74524;BME280;63074;44.696;10.358;2023-12-20T09:34:59;99799.41;;;12.59;100.00
74524;BME280;63074;44.696;10.358;2023-12-20T09:37:28;99789.28;;;12.71;100.00
74524;BME280;63074;44.696;10.358;2023-12-20T09:39:55;99790.22;;;11.12;100.00
74524;BME280;63074;44.696;10.358;2023-12-20T09:43:09;99798.94;;;10.86;100.00
74524;BME280;63074;44.696;10.358;2023-12-20T09:45:20;99784.59;;;10.80;100.00
74524;BME280;63074;44.696;10.358;2023-12-20T09:47:58;99776.41;;;12.24;100.00
74524;BME280;63074;44.696;10.358;2023-12-20T09:50:25;99768.94;;;11.82;100.00
74524;BME280;63074;44.696;10.358;2023-12-20T09:52:53;99774.31;;;11.27;100.00
74524;BME280;63074;44.696;10.358;2023-12-20T09:55:20;99771.19;;;11.52;100.00
74524;BME280;63074;44.696;10.358;2023-12-20T09:57:49;99770.00;;;11.65;100.00
74524;BME280;63074;44.696;10.358;2023-12-20T10:00:16;99758.09;;;11.61;100.00
74524;BME280;63074;44.696;10.358;2023-12-20T10:02:50;99760.66;;;11.89;100.00
74524;BME280;63074;44.696;10.358;2023-12-20T10:05:19;99762.31;;;11.73;100.00
74524;BME280;63074;44.696;10.358;2023-12-20T10:07:49;99743.28;;;13.57;100.00
74524;BME280;63074;44.696;10.358;2023-12-20T10:10:15;99740.03;;;13.55;100.00
74524;BME280;63074;44.696;10.358;2023-12-20T10:13:05;99734.34;;;13.51;100.00
74524;BME280;63074;44.696;10.358;2023-12-20T10:15:33;99736.13;;;13.93;100.00
74524;BME280;63074;44.696;10.358;2023-12-20T10:17:59;99737.19;;;13.86;100.00
74524;BME280;63074;44.696;10.358;2023-12-20T10:20:26;99740.50;;;14.04;100.00
74524;BME280;63074;44.696;10.358;2023-12-20T10:22:52;99736.50;;;14.32;100.00
74524;BME280;63074;44.696;10.358;2023-12-20T10:25:22;99726.78;;;14.36;98.96
74524;BME280;63074;44.696;10.358;2023-12-20T10:27:49;99732.75;;;14.38;99.87
74524;BME280;63074;44.696;10.358;2023-12-20T10:30:15;99728.09;;;14.08;100.00
74524;BME280;63074;44.696;10.358;2023-12-20T10:32:42;99722.13;;;14.16;100.00
74524;BME280;63074;44.696;10.358;2023-12-20T10:35:09;99715.91;;;14.00;100.00
74524;BME280;63074;44.696;10.358;2023-12-20T10:37:36;99708.97;;;14.50;100.00
74524;BME280;63074;44.696;10.358;2023-12-20T10:40:04;99701.66;;;14.40;100.00
74524;BME280;63074;44.696;10.358;2023-12-20T10:42:32;99693.84;;;14.84;100.00
74524;BME280;63074;44.696;10.358;2023-12-20T10:45:01;99695.19;;;14.92;100.00
74524;BME280;63074;44.696;10.358;2023-12-20T10:47:30;99694.94;;;14.78;100.00
74524;BME280;63074;44.696;10.358;2023-12-20T10:49:58;99690.75;;;13.32;100.00
74524;BME280;63074;44.696;10.358;2023-12-20T10:52:25;99698.16;;;14.40;100.00
74524;BME280;63074;44.696;10.358;2023-12-20T10:54:53;99686.69;;;15.39;100.00
74524;BME280;63074;44.696;10.358;2023-12-20T10:57:20;99691.09;;;15.20;100.00
74524;BME280;63074;44.696;10.358;2023-12-20T10:59:49;99688.88;;;15.32;100.00
74524;BME280;63074;44.696;10.358;2023-12-20T11:02:19;99693.53;;;15.11;100.00
74524;BME280;63074;44.696;10.358;2023-12-20T11:08:20;99688.97;;;14.92;100.00
74524;BME280;63074;44.696;10.358;2023-12-20T11:13:17;99692.44;;;15.28;100.00
74524;BME280;63074;44.696;10.358;2023-12-20T11:15:46;99685.69;;;15.25;99.57
74524;BME280;63074;44.696;10.358;2023-12-20T11:18:12;99690.25;;;15.30;99.04
74524;BME280;63074;44.696;10.358;2023-12-20T11:20:40;99687.63;;;14.99;100.00
74524;BME280;63074;44.696;10.358;2023-12-20T11:23:08;99694.69;;;14.70;100.00
74524;BME280;63074;44.696;10.358;2023-12-20T11:25:53;99687.03;;;15.17;100.00
74524;BME280;63074;44.696;10.358;2023-12-20T11:28:24;99684.09;;;14.78;100.00
74524;BME280;63074;44.696;10.358;2023-12-20T11:30:53;99682.75;;;14.91;100.00
74524;BME280;63074;44.696;10.358;2023-12-20T11:33:30;99680.88;;;14.61;100.00
74524;BME280;63074;44.696;10.358;2023-12-20T11:35:57;99676.28;;;14.51;100.00
74524;BME280;63074;44.696;10.358;2023-12-20T11:38:25;99667.56;;;15.05;99.03
74524;BME280;63074;44.696;10.358;2023-12-20T11:40:54;99670.59;;;14.89;99.25
74524;BME280;63074;44.696;10.358;2023-12-20T11:43:36;99668.44;;;14.70;100.00
74524;BME280;63074;44.696;10.358;2023-12-20T11:46:06;99679.19;;;15.21;98.69
74524;BME280;63074;44.696;10.358;2023-12-20T11:48:36;99661.59;;;15.08;98.60
74524;BME280;63074;44.696;10.358;2023-12-20T11:51:02;99673.03;;;14.55;100.00
74524;BME280;63074;44.696;10.358;2023-12-20T11:53:35;99672.22;;;14.95;100.00
74524;BME280;63074;44.696;10.358;2023-12-20T11:56:03;99669.16;;;15.27;100.00
74524;BME280;63074;44.696;10.358;2023-12-20T11:58:30;99673.22;;;15.24;100.00
74524;BME280;63074;44.696;10.358;2023-12-20T12:00:56;99672.22;;;14.95;100.00
74524;BME280;63074;44.696;10.358;2023-12-20T12:03:23;99664.91;;;14.90;100.00
74524;BME280;63074;44.696;10.358;2023-12-20T12:05:50;99656.91;;;15.44;100.00
74524;BME280;63074;44.696;10.358;2023-12-20T12:08:17;99655.47;;;15.72;100.00
74524;BME280;63074;44.696;10.358;2023-12-20T12:10:44;99658.41;;;14.91;100.00
74524;BME280;63074;44.696;10.358;2023-12-20T12:13:11;99647.50;;;15.22;100.00
74524;BME280;63074;44.696;10.358;2023-12-20T12:15:37;99647.69;;;15.45;100.00
74524;BME280;63074;44.696;10.358;2023-12-20T12:18:04;99646.16;;;15.29;100.00
74524;BME280;63074;44.696;10.358;2023-12-20T12:20:31;99646.72;;;15.21;100.00
74524;BME280;63074;44.696;10.358;2023-12-20T12:25:34;99645.00;;;15.40;100.00
74524;BME280;63074;44.696;10.358;2023-12-20T12:28:01;99641.34;;;15.75;100.00
74524;BME280;63074;44.696;10.358;2023-12-20T12:30:28;99640.66;;;16.04;100.00
74524;BME280;63074;44.696;10.358;2023-12-20T12:32:55;99640.50;;;15.05;100.00
74524;BME280;63074;44.696;10.358;2023-12-20T12:35:22;99647.84;;;14.95;100.00
74524;BME280;63074;44.696;10.358;2023-12-20T12:37:48;99646.50;;;14.82;100.00
74524;BME280;63074;44.696;10.358;2023-12-20T12:40:16;99642.19;;;14.81;100.00
74524;BME280;63074;44.696;10.358;2023-12-20T12:42:44;99638.69;;;14.60;100.00
74524;BME280;63074;44.696;10.358;2023-12-20T12:45:10;99640.31;;;14.46;100.00
74524;BME280;63074;44.696;10.358;2023-12-20T12:47:40;99631.41;;;14.50;100.00
74524;BME280;63074;44.696;10.358;2023-12-20T12:50:07;99612.75;;;14.69;100.00
74524;BME280;63074;44.696;10.358;2023-12-20T12:52:33;99612.47;;;14.61;100.00
74524;BME280;63074;44.696;10.358;2023-12-20T12:54:59;99610.31;;;14.63;100.00